Time;durP1;ratioP1;P1;durP2;ratioP2;P2;SDS_P1;SDS_P2;PMS_P1;PMS_P2;Temp;Humidity;BMP_temperature;BMP_pressure;BME280_temperature;BME280_humidity;BME280_pressure;Samples;Min_cycle;Max_cycle;Signal;HPM_P1;HPM_P2
2023/06/17 00:00:39;;;;;;;0.40;0.40;;;;;;;21.79;100.00;98563.63;5072976;28;20208;-66
2023/06/17 00:03:06;;;;;;;0.67;0.67;;;;;;;21.84;100.00;98558.00;5072751;28;20615;-67
2023/06/17 00:05:32;;;;;;;0.50;0.50;;;;;;;21.82;100.00;98555.53;5072911;28;20207;-66
2023/06/17 00:07:59;;;;;;;0.50;0.50;;;;;;;21.84;100.00;98550.19;5072617;28;20196;-67
2023/06/17 00:10:26;;;;;;;0.60;0.60;;;;;;;21.85;100.00;98551.81;5072942;28;20195;-67
2023/06/17 00:12:54;;;;;;;0.80;0.80;;;;;;;21.71;100.00;98547.81;5072927;28;20206;-66
2023/06/17 00:15:22;;;;;;;0.47;0.47;;;;;;;21.79;100.00;98552.38;5072776;28;20192;-67
2023/06/17 00:17:50;;;;;;;0.40;0.40;;;;;;;21.81;100.00;98553.88;5072273;28;20223;-66
2023/06/17 00:20:16;;;;;;;0.50;0.50;;;;;;;21.84;100.00;98542.34;5072832;28;20198;-66
2023/06/17 00:22:44;;;;;;;0.63;0.63;;;;;;;21.82;100.00;98550.31;5072296;28;20203;-67
2023/06/17 00:25:12;;;;;;;0.60;0.60;;;;;;;21.84;100.00;98548.38;5072620;28;20290;-67
2023/06/17 00:27:39;;;;;;;0.47;0.47;;;;;;;21.86;100.00;98553.47;5072447;28;20311;-66
2023/06/17 00:30:09;;;;;;;0.50;0.50;;;;;;;21.82;100.00;98552.91;5072540;28;20219;-66
2023/06/17 00:32:36;;;;;;;0.50;0.50;;;;;;;21.80;100.00;98547.03;5072376;28;20192;-67
2023/06/17 00:35:04;;;;;;;0.50;0.50;;;;;;;21.76;100.00;98545.63;5072312;28;20200;-66
2023/06/17 00:37:31;;;;;;;0.60;0.60;;;;;;;21.77;100.00;98547.31;5072684;28;20295;-67
2023/06/17 00:39:58;;;;;;;0.60;0.60;;;;;;;21.80;100.00;98548.81;5072085;28;20249;-67
2023/06/17 00:42:25;;;;;;;0.50;0.50;;;;;;;21.81;100.00;98548.66;5071426;28;20561;-66
2023/06/17 00:44:52;;;;;;;0.50;0.50;;;;;;;21.82;100.00;98545.09;5072039;28;20207;-66
2023/06/17 00:47:21;;;;;;;0.30;0.30;;;;;;;21.86;100.00;98543.03;5072301;28;20204;-67
2023/06/17 00:49:48;;;;;;;0.80;0.80;;;;;;;21.87;100.00;98542.88;5071853;28;20216;-67
2023/06/17 00:52:16;;;;;;;0.50;0.50;;;;;;;21.88;100.00;98544.53;5072431;28;20196;-66
2023/06/17 00:54:43;;;;;;;0.63;0.63;;;;;;;21.89;100.00;98546.22;5071955;28;20196;-67
2023/06/17 00:57:11;;;;;;;1.40;0.70;;;;;;;21.83;100.00;98551.97;5071606;28;20196;-67
2023/06/17 00:59:39;;;;;;;0.60;0.60;;;;;;;21.74;100.00;98547.56;5072023;28;20196;-66
2023/06/17 01:02:09;;;;;;;0.50;0.50;;;;;;;21.62;100.00;98533.00;5071650;28;20580;-66
2023/06/17 01:04:38;;;;;;;0.50;0.50;;;;;;;21.77;100.00;98543.88;5071819;28;20199;-66
2023/06/17 01:07:21;;;;;;;0.60;0.60;;;;;;;21.67;100.00;98546.47;5071776;28;20233;-66
2023/06/17 01:09:56;;;;;;;0.50;0.50;;;;;;;21.66;100.00;98541.38;5071672;28;20234;-66
2023/06/17 01:12:25;;;;;;;0.70;0.70;;;;;;;21.55;100.00;98529.28;5071248;28;20200;-67
2023/06/17 01:14:57;;;;;;;0.30;0.30;;;;;;;21.56;100.00;98543.97;5071413;28;20234;-67
2023/06/17 01:17:24;;;;;;;0.40;0.40;;;;;;;21.49;100.00;98537.66;5071682;28;20204;-66
2023/06/17 01:19:53;;;;;;;0.40;0.40;;;;;;;21.54;100.00;98545.06;5071426;28;20238;-66
2023/06/17 01:22:21;;;;;;;0.30;0.30;;;;;;;21.46;100.00;98541.34;5071392;28;20204;-66
2023/06/17 01:24:50;;;;;;;0.60;0.60;;;;;;;21.48;100.00;98535.19;5071513;28;20199;-66
2023/06/17 01:27:17;;;;;;;0.50;0.50;;;;;;;21.45;100.00;98536.28;5070156;28;20265;-66
2023/06/17 01:29:47;;;;;;;0.80;0.70;;;;;;;21.44;100.00;98539.84;5071502;28;20227;-67
2023/06/17 01:32:13;;;;;;;0.70;0.70;;;;;;;21.42;100.00;98539.97;5071020;28;20207;-66
2023/06/17 01:34:46;;;;;;;0.50;0.50;;;;;;;21.46;100.00;98543.13;5071125;28;20211;-67
2023/06/17 01:37:19;;;;;;;0.53;0.53;;;;;;;21.43;100.00;98543.41;5071042;28;20211;-66
2023/06/17 01:39:48;;;;;;;0.60;0.60;;;;;;;21.50;100.00;98539.31;5071122;28;20203;-66
2023/06/17 01:42:21;;;;;;;0.87;0.87;;;;;;;21.50;100.00;98538.47;5070946;28;20211;-66
2023/06/17 01:44:49;;;;;;;0.60;0.60;;;;;;;21.50;100.00;98536.69;5071287;28;20692;-66
2023/06/17 01:47:16;;;;;;;0.53;0.53;;;;;;;21.54;100.00;98540.69;5070976;28;20614;-66
2023/06/17 01:49:43;;;;;;;0.60;0.60;;;;;;;21.51;100.00;98533.13;5070920;28;20227;-66
2023/06/17 01:52:11;;;;;;;0.50;0.50;;;;;;;21.47;100.00;98539.56;5070820;28;20207;-66
2023/06/17 01:54:38;;;;;;;2.13;0.70;;;;;;;21.44;100.00;98539.84;5070890;28;20204;-67
2023/06/17 01:57:06;;;;;;;0.47;0.47;;;;;;;21.37;100.00;98543.94;5070616;28;20203;-66
2023/06/17 01:59:34;;;;;;;0.50;0.50;;;;;;;21.36;100.00;98547.50;5070825;28;20203;-66
2023/06/17 02:02:00;;;;;;;0.50;0.50;;;;;;;21.29;100.00;98549.03;5070786;28;20230;-66
2023/06/17 02:04:27;;;;;;;0.43;0.43;;;;;;;21.26;100.00;98547.50;5070603;28;20196;-66
2023/06/17 02:06:54;;;;;;;0.70;0.70;;;;;;;21.17;100.00;98535.25;5070751;28;20192;-66
2023/06/17 02:09:21;;;;;;;0.40;0.40;;;;;;;21.18;100.00;98554.34;5070413;28;20310;-66
2023/06/17 02:11:48;;;;;;;0.43;0.43;;;;;;;21.12;100.00;98547.06;5069288;28;20203;-66
2023/06/17 02:14:15;;;;;;;0.40;0.40;;;;;;;21.11;100.00;98545.41;5070322;28;20207;-66
2023/06/17 02:16:48;;;;;;;0.67;0.67;;;;;;;21.04;100.00;98541.63;5070463;28;20196;-66
2023/06/17 02:19:15;;;;;;;0.57;0.57;;;;;;;21.00;100.00;98537.66;5070647;28;20595;-66
2023/06/17 02:21:43;;;;;;;0.60;0.50;;;;;;;21.01;100.00;98532.31;5070765;28;20614;-66
2023/06/17 02:24:10;;;;;;;0.50;0.50;;;;;;;21.02;100.00;98530.53;5070880;28;20200;-66
2023/06/17 02:26:37;;;;;;;0.40;0.40;;;;;;;21.07;100.00;98541.38;5070419;28;20202;-66
2023/06/17 02:29:04;;;;;;;0.60;0.60;;;;;;;21.08;100.00;98537.81;5069825;28;20803;-66
2023/06/17 02:31:32;;;;;;;0.60;0.60;;;;;;;21.07;100.00;98536.16;5070300;28;20212;-65
2023/06/17 02:34:02;;;;;;;0.30;0.30;;;;;;;21.01;100.00;98526.25;5070452;28;20227;-66
2023/06/17 02:36:28;;;;;;;0.80;0.80;;;;;;;21.07;100.00;98529.16;5070332;28;20200;-66
2023/06/17 02:38:55;;;;;;;0.83;0.83;;;;;;;21.10;100.00;98533.34;5070532;28;20195;-66
2023/06/17 02:41:22;;;;;;;0.40;0.40;;;;;;;21.09;100.00;98535.13;5070635;28;20203;-66
2023/06/17 02:43:49;;;;;;;0.50;0.50;;;;;;;20.97;100.00;98514.47;5070257;28;20564;-66
2023/06/17 02:46:15;;;;;;;0.40;0.40;;;;;;;20.95;100.00;98533.66;5070518;28;20196;-66
2023/06/17 02:48:42;;;;;;;0.67;0.67;;;;;;;20.91;100.00;98531.44;5070246;28;20196;-66
2023/06/17 02:51:11;;;;;;;0.53;0.53;;;;;;;20.97;100.00;98525.69;5070628;28;20277;-66
2023/06/17 02:53:38;;;;;;;0.57;0.57;;;;;;;20.95;100.00;98518.03;5070380;28;20227;-66
2023/06/17 02:56:04;;;;;;;0.50;0.50;;;;;;;21.00;100.00;98527.25;5070524;28;20620;-66
2023/06/17 02:58:31;;;;;;;0.40;0.40;;;;;;;21.04;100.00;98520.78;5069706;28;20213;-66
2023/06/17 03:00:59;;;;;;;0.50;0.50;;;;;;;21.04;100.00;98526.00;5070125;28;20196;-66
2023/06/17 03:03:34;;;;;;;0.40;0.40;;;;;;;20.96;100.00;98521.47;5070509;28;20203;-66
2023/06/17 03:06:03;;;;;;;0.40;0.40;;;;;;;20.92;100.00;98523.50;5072416;28;20253;-66
2023/06/17 03:08:32;;;;;;;0.40;0.40;;;;;;;20.94;100.00;98515.53;5074109;28;20203;-66
2023/06/17 03:10:59;;;;;;;0.50;0.50;;;;;;;20.86;100.00;98508.41;5073642;28;20307;-66
2023/06/17 03:13:26;;;;;;;0.50;0.50;;;;;;;20.97;100.00;98525.69;5073951;28;20203;-66
2023/06/17 03:15:53;;;;;;;0.60;0.60;;;;;;;21.00;100.00;98524.63;5073614;28;20281;-66
2023/06/17 03:18:21;;;;;;;0.50;0.50;;;;;;;21.01;100.00;98523.66;5073860;28;20303;-66
2023/06/17 03:20:48;;;;;;;0.40;0.40;;;;;;;20.99;100.00;98530.78;5073797;28;20711;-66
2023/06/17 03:23:16;;;;;;;0.50;0.50;;;;;;;20.95;100.00;98528.47;5073306;28;20668;-66
2023/06/17 03:25:44;;;;;;;0.63;0.63;;;;;;;21.04;100.00;98536.41;5073737;28;20207;-66
2023/06/17 03:28:11;;;;;;;0.63;0.63;;;;;;;21.05;100.00;98538.06;5073147;28;20660;-66
2023/06/17 03:30:40;;;;;;;0.60;0.60;;;;;;;21.06;100.00;98537.13;5073853;28;20219;-66
2023/06/17 03:33:07;;;;;;;0.63;0.63;;;;;;;21.08;100.00;98540.41;5073696;28;20196;-66
2023/06/17 03:35:34;;;;;;;0.40;0.40;;;;;;;21.08;100.00;98543.03;5073585;28;20203;-66
2023/06/17 03:38:01;;;;;;;0.60;0.60;;;;;;;21.03;100.00;98547.81;5072815;28;20196;-66
2023/06/17 03:40:28;;;;;;;0.60;0.60;;;;;;;21.04;100.00;98549.44;5073667;28;20660;-66
2023/06/17 03:42:56;;;;;;;2.63;0.50;;;;;;;21.05;100.00;98549.34;5073510;28;20195;-66
2023/06/17 03:45:23;;;;;;;0.57;0.57;;;;;;;21.06;100.00;98548.38;5073258;28;20203;-67
2023/06/17 03:47:50;;;;;;;0.40;0.40;;;;;;;21.10;100.00;98544.56;5073534;28;20203;-66
2023/06/17 03:50:19;;;;;;;0.83;0.83;;;;;;;21.12;100.00;98549.66;5071911;28;20215;-66
2023/06/17 03:52:46;;;;;;;2.63;0.60;;;;;;;21.14;100.00;98543.34;5073441;28;20736;-66
2023/06/17 03:55:13;;;;;;;0.60;0.60;;;;;;;21.07;100.00;98541.38;5072864;28;20192;-66
2023/06/17 03:57:40;;;;;;;0.50;0.50;;;;;;;21.03;100.00;98545.22;5069197;28;20213;-66
2023/06/17 04:00:10;;;;;;;0.77;0.77;;;;;;;20.94;100.00;98537.22;5072110;28;20197;-66
2023/06/17 04:02:37;;;;;;;0.50;0.50;;;;;;;21.03;100.00;98556.47;5073159;28;20209;-66
2023/06/17 04:05:05;;;;;;;0.70;0.70;;;;;;;21.01;100.00;98549.72;5072861;28;20203;-66
2023/06/17 04:07:33;;;;;;;0.50;0.50;;;;;;;20.97;100.00;98550.97;5072209;28;20291;-66
2023/06/17 04:10:00;;;;;;;0.73;0.73;;;;;;;20.90;100.00;98551.47;5072258;28;20212;-66
2023/06/17 04:12:27;;;;;;;0.50;0.50;;;;;;;20.93;100.00;98551.22;5072776;28;20191;-66
2023/06/17 04:14:53;;;;;;;0.50;0.50;;;;;;;20.89;100.00;98560.25;5073010;28;20211;-66
2023/06/17 04:17:21;;;;;;;0.50;0.50;;;;;;;20.89;100.00;98557.66;5072522;28;20277;-66
2023/06/17 04:19:48;;;;;;;0.67;0.67;;;;;;;20.80;100.00;98555.84;5072840;28;20198;-66
2023/06/17 04:22:15;;;;;;;0.70;0.70;;;;;;;20.89;100.00;98560.25;5072603;28;20204;-66
2023/06/17 04:24:42;;;;;;;0.50;0.50;;;;;;;20.86;100.00;98555.31;5072694;28;20259;-66
2023/06/17 04:27:09;;;;;;;0.40;0.40;;;;;;;20.90;100.00;98548.84;5072742;28;20208;-66
2023/06/17 04:29:37;;;;;;;0.40;0.40;;;;;;;20.82;100.00;98548.69;5072310;28;20200;-66
2023/06/17 04:32:04;;;;;;;0.63;0.63;;;;;;;20.91;100.00;98567.91;5072766;28;20206;-66
2023/06/17 04:34:33;;;;;;;0.63;0.63;;;;;;;20.86;100.00;98570.09;5072212;28;20212;-66
2023/06/17 04:37:00;;;;;;;0.50;0.50;;;;;;;20.92;100.00;98575.63;5072318;28;20237;-67
2023/06/17 04:39:27;;;;;;;0.83;0.83;;;;;;;20.93;100.00;98573.84;5072464;28;20199;-66
2023/06/17 04:41:54;;;;;;;0.80;0.80;;;;;;;20.92;100.00;98586.03;5072398;28;20232;-66
2023/06/17 04:44:22;;;;;;;1.00;1.00;;;;;;;20.85;100.00;98564.06;5072132;28;20220;-66
2023/06/17 04:46:49;;;;;;;0.63;0.63;;;;;;;20.97;100.00;98592.66;5071998;28;20257;-66
2023/06/17 04:49:16;;;;;;;0.50;0.50;;;;;;;20.97;100.00;98596.06;5072312;28;20251;-66
2023/06/17 04:51:44;;;;;;;0.50;0.50;;;;;;;20.89;100.00;98598.50;5072171;28;20220;-66
2023/06/17 04:54:11;;;;;;;0.47;0.47;;;;;;;20.82;100.00;98599.97;5072444;28;20584;-66
2023/06/17 04:56:38;;;;;;;0.40;0.40;;;;;;;20.82;100.00;98590.38;5071864;28;20211;-66
2023/06/17 04:59:05;;;;;;;0.83;0.83;;;;;;;20.95;100.00;98600.59;5071894;28;20223;-66
2023/06/17 05:01:31;;;;;;;0.87;0.87;;;;;;;20.97;100.00;98613.50;5069573;28;20204;-66
2023/06/17 05:03:58;;;;;;;0.73;0.73;;;;;;;20.95;100.00;98614.44;5071736;28;20209;-67
2023/06/17 05:06:25;;;;;;;0.80;0.80;;;;;;;21.01;100.00;98610.47;5071600;28;20241;-66
2023/06/17 05:08:53;;;;;;;0.40;0.40;;;;;;;21.06;100.00;98617.91;5071659;28;20205;-66
2023/06/17 05:11:20;;;;;;;0.40;0.40;;;;;;;21.10;100.00;98624.56;5071786;28;20216;-66
2023/06/17 05:13:46;;;;;;;0.77;0.77;;;;;;;21.19;100.00;98628.97;5071523;28;20207;-66
2023/06/17 05:16:14;;;;;;;0.80;0.80;;;;;;;21.23;100.00;98630.34;5071828;28;20200;-66
2023/06/17 05:18:40;;;;;;;0.50;0.50;;;;;;;21.26;100.00;98630.91;5071367;28;20227;-66
2023/06/17 05:21:07;;;;;;;0.50;0.50;;;;;;;21.23;100.00;98622.53;5071675;28;20197;-66
2023/06/17 05:23:34;;;;;;;0.40;0.40;;;;;;;21.27;100.00;98636.94;5071830;28;20206;-67
2023/06/17 05:26:02;;;;;;;0.80;0.80;;;;;;;21.36;100.00;98638.75;5071302;28;20207;-66
2023/06/17 05:28:29;;;;;;;0.63;0.63;;;;;;;21.38;100.00;98639.47;5070569;28;20288;-67
2023/06/17 05:30:55;;;;;;;0.77;0.77;;;;;;;21.41;100.00;98640.03;5070449;28;20212;-66
2023/06/17 05:33:24;;;;;;;0.63;0.63;;;;;;;21.44;100.00;98644.16;5071671;28;20199;-66
2023/06/17 05:35:51;;;;;;;0.50;0.50;;;;;;;21.44;100.00;98638.94;5070764;28;20200;-66
2023/06/17 05:38:18;;;;;;;0.53;0.53;;;;;;;21.44;100.00;98644.16;5071353;28;20198;-67
2023/06/17 05:40:44;;;;;;;0.50;0.50;;;;;;;21.49;100.00;98646.38;5071365;28;20765;-66
2023/06/17 05:43:12;;;;;;;0.40;0.40;;;;;;;21.48;100.00;98635.13;5071085;28;20675;-66
2023/06/17 05:45:39;;;;;;;0.63;0.63;;;;;;;21.55;100.00;98657.06;5071081;28;20194;-66
2023/06/17 05:48:06;;;;;;;0.37;0.37;;;;;;;21.60;100.00;98651.47;5070932;28;20214;-66
2023/06/17 05:50:33;;;;;;;0.60;0.60;;;;;;;21.63;100.00;98649.44;5071307;28;20615;-66
2023/06/17 05:53:00;;;;;;;0.60;0.60;;;;;;;21.59;100.00;98655.84;5070901;28;20668;-66
2023/06/17 05:55:26;;;;;;;0.50;0.50;;;;;;;21.60;100.00;98654.91;5070662;28;20672;-66
2023/06/17 05:57:54;;;;;;;0.60;0.60;;;;;;;21.51;100.00;98636.63;5070997;28;20698;-67
2023/06/17 06:00:23;;;;;;;0.57;0.57;;;;;;;21.65;100.00;98662.34;5070899;28;20735;-66
2023/06/17 06:02:49;;;;;;;0.33;0.33;;;;;;;21.64;100.00;98660.69;5071075;28;20230;-65
2023/06/17 06:05:16;;;;;;;0.40;0.40;;;;;;;21.66;100.00;98659.59;5070939;28;20204;-67
2023/06/17 06:07:44;;;;;;;0.50;0.50;;;;;;;21.60;100.00;98654.91;5071147;28;20204;-66
2023/06/17 06:10:11;;;;;;;0.40;0.40;;;;;;;21.59;100.00;98662.84;5070505;28;20286;-66
2023/06/17 06:12:39;;;;;;;0.43;0.43;;;;;;;21.55;100.00;98667.50;5070834;28;20214;-66
2023/06/17 06:15:07;;;;;;;0.87;0.87;;;;;;;21.53;100.00;98668.59;5070520;28;20238;-66
2023/06/17 06:17:35;;;;;;;0.60;0.60;;;;;;;21.63;100.00;98670.28;5071028;28;20211;-66
2023/06/17 06:20:03;;;;;;;0.40;0.40;;;;;;;21.60;100.00;98678.38;5070343;28;20200;-67
2023/06/17 06:22:30;;;;;;;0.90;0.90;;;;;;;21.60;100.00;98674.94;5065191;28;20203;-67
2023/06/17 06:24:57;;;;;;;0.53;0.53;;;;;;;21.61;100.00;98677.44;5070582;28;20195;-67
2023/06/17 06:27:26;;;;;;;1.23;0.80;;;;;;;21.70;100.00;98681.84;5070230;28;20675;-66
2023/06/17 06:29:53;;;;;;;0.40;0.40;;;;;;;21.71;100.00;98677.47;5070910;28;20207;-66
2023/06/17 06:32:20;;;;;;;0.30;0.30;;;;;;;21.70;100.00;98686.22;5070421;28;20616;-66
2023/06/17 06:34:50;;;;;;;0.63;0.63;;;;;;;21.73;100.00;98692.00;5070851;28;20602;-66
2023/06/17 06:37:17;;;;;;;0.67;0.67;;;;;;;21.82;100.00;98686.00;5070179;28;20196;-66
2023/06/17 06:39:44;;;;;;;0.83;0.83;;;;;;;21.92;100.00;98686.88;5070627;28;20223;-66
2023/06/17 06:42:11;;;;;;;1.10;1.10;;;;;;;21.97;100.00;98682.06;5074606;28;20671;-67
2023/06/17 06:44:38;;;;;;;0.60;0.60;;;;;;;22.01;100.00;98668.72;5073320;28;20688;-66
2023/06/17 06:47:05;;;;;;;0.60;0.60;;;;;;;22.05;100.00;98670.13;5074642;28;20199;-66
2023/06/17 06:49:33;;;;;;;1.03;1.03;;;;;;;22.12;100.00;98671.22;5074595;28;20672;-66
2023/06/17 06:52:01;;;;;;;0.50;0.50;;;;;;;22.20;100.00;98668.75;5074571;28;20212;-66
2023/06/17 06:54:28;;;;;;;0.97;0.97;;;;;;;22.25;100.00;98666.56;5074071;28;20204;-66
2023/06/17 06:56:55;;;;;;;0.50;0.50;;;;;;;22.25;100.00;98667.41;5074733;28;20200;-66
2023/06/17 06:59:22;;;;;;;0.63;0.57;;;;;;;22.22;100.00;98661.63;5074129;28;20229;-66
2023/06/17 07:01:49;;;;;;;0.63;0.63;;;;;;;22.24;100.00;98664.91;5074072;28;20195;-66
2023/06/17 07:04:16;;;;;;;0.40;0.40;;;;;;;22.22;100.00;98666.84;5074218;28;20196;-66
2023/06/17 07:06:43;;;;;;;0.57;0.57;;;;;;;22.26;100.00;98665.63;5074207;28;20749;-66
2023/06/17 07:09:11;;;;;;;0.57;0.57;;;;;;;22.28;100.00;98668.91;5074228;28;20204;-67
2023/06/17 07:11:38;;;;;;;0.77;0.77;;;;;;;22.21;100.00;98660.78;5073520;28;20220;-66
2023/06/17 07:14:45;;;;;;;0.90;0.90;;;;;;;22.29;100.00;98662.72;5074066;28;20207;-66
2023/06/17 07:17:12;;;;;;;0.73;0.73;;;;;;;22.24;100.00;98670.13;5073944;28;20199;-66
2023/06/17 07:19:38;;;;;;;1.00;1.00;;;;;;;22.08;100.00;98665.47;5073277;28;20204;-66
2023/06/17 07:22:05;;;;;;;0.70;0.70;;;;;;;21.94;100.00;98661.44;5073926;28;20237;-66
2023/06/17 07:24:33;;;;;;;0.43;0.43;;;;;;;21.91;100.00;98672.16;5073195;28;20196;-66
2023/06/17 07:27:00;;;;;;;0.50;0.50;;;;;;;21.87;100.00;98677.78;5073579;28;20212;-66
2023/06/17 07:29:27;;;;;;;0.50;0.50;;;;;;;21.76;100.00;98673.47;5072986;28;20341;-66
2023/06/17 07:31:54;;;;;;;0.70;0.70;;;;;;;21.77;100.00;98677.75;5073486;28;20299;-66
2023/06/17 07:34:21;;;;;;;0.50;0.50;;;;;;;21.76;100.00;98677.88;5073684;28;20288;-66
2023/06/17 07:36:52;;;;;;;0.70;0.70;;;;;;;21.76;100.00;98670.88;5073196;28;20236;-66
2023/06/17 07:39:19;;;;;;;0.60;0.60;;;;;;;21.81;100.00;98679.13;5073519;28;20210;-66
2023/06/17 07:41:47;;;;;;;0.60;0.60;;;;;;;21.77;100.00;98674.31;5073076;28;20618;-66
2023/06/17 07:44:13;;;;;;;0.50;0.50;;;;;;;21.77;100.00;98667.31;5073405;28;20200;-66
2023/06/17 07:46:40;;;;;;;0.73;0.73;;;;;;;21.77;100.00;98677.75;5073402;28;20196;-66
2023/06/17 07:49:07;;;;;;;0.67;0.60;;;;;;;21.82;100.00;98667.72;5073361;28;20649;-66
2023/06/17 07:51:34;;;;;;;0.53;0.53;;;;;;;21.84;100.00;98668.41;5072177;28;20219;-66
2023/06/17 07:54:00;;;;;;;0.67;0.67;;;;;;;21.87;100.00;98672.56;5073575;28;20733;-66
2023/06/17 07:56:28;;;;;;;0.80;0.80;;;;;;;21.86;100.00;98670.88;5072944;28;20211;-66
2023/06/17 07:58:57;;;;;;;0.40;0.40;;;;;;;21.91;100.00;98673.94;5072808;28;20206;-66
2023/06/17 08:01:23;;;;;;;0.63;0.63;;;;;;;21.98;100.00;98675.06;5073152;28;20227;-66
2023/06/17 08:03:51;;;;;;;0.70;0.70;;;;;;;21.85;100.00;98653.56;5071244;28;20597;-66
2023/06/17 08:06:18;;;;;;;0.57;0.57;;;;;;;21.89;100.00;98655.81;5072612;28;20630;-66
2023/06/17 08:08:45;;;;;;;0.50;0.50;;;;;;;21.97;100.00;98684.66;5072651;28;20206;-67
2023/06/17 08:11:12;;;;;;;0.70;0.70;;;;;;;21.97;100.00;98682.06;5072654;28;20698;-66
2023/06/17 08:13:39;;;;;;;0.50;0.50;;;;;;;21.96;100.00;98680.44;5072902;28;20203;-66
2023/06/17 08:16:07;;;;;;;1.07;1.07;;;;;;;21.95;100.00;98686.59;5071513;28;20207;-67
2023/06/17 08:18:34;;;;;;;1.23;1.23;;;;;;;21.90;100.00;98686.19;5072680;28;20208;-66
2023/06/17 08:21:00;;;;;;;0.97;0.97;;;;;;;21.81;100.00;98670.47;5072235;28;20196;-67
2023/06/17 08:23:27;;;;;;;0.50;0.50;;;;;;;21.89;100.00;98691.53;5072649;28;20283;-66
2023/06/17 08:25:54;;;;;;;0.80;0.80;;;;;;;21.95;100.00;98691.81;5072473;28;20204;-67
2023/06/17 08:28:21;;;;;;;0.50;0.50;;;;;;;22.01;100.00;98687.00;5071256;28;20224;-67
2023/06/17 08:30:49;;;;;;;0.93;0.93;;;;;;;22.03;100.00;98685.09;5072401;28;20219;-66
2023/06/17 08:33:17;;;;;;;0.93;0.83;;;;;;;22.10;100.00;98688.81;5072168;28;20203;-66
2023/06/17 08:35:44;;;;;;;0.63;0.63;;;;;;;22.17;100.00;98682.06;5072408;28;20208;-66
2023/06/17 08:38:10;;;;;;;0.80;0.80;;;;;;;22.19;100.00;98693.22;5072214;28;20196;-66
2023/06/17 08:40:39;;;;;;;0.73;0.50;;;;;;;22.25;100.00;98684.84;5071348;28;20247;-66
2023/06/17 08:43:10;;;;;;;0.60;0.60;;;;;;;22.32;100.00;98689.41;5072435;28;20660;-65
2023/06/17 08:45:37;;;;;;;0.77;0.77;;;;;;;22.42;100.00;98689.41;5072596;28;20242;-65
2023/06/17 08:48:05;;;;;;;0.50;0.50;;;;;;;22.48;100.00;98701.91;5072103;28;20569;-65
2023/06/17 08:50:34;;;;;;;0.93;0.93;;;;;;;22.55;100.00;98689.94;5072153;28;20195;-66
2023/06/17 08:53:02;;;;;;;0.53;0.53;;;;;;;22.58;100.00;98689.66;5071823;28;20211;-66
2023/06/17 08:55:29;;;;;;;0.83;0.83;;;;;;;22.58;100.00;98694.88;5071318;28;20253;-66
2023/06/17 08:57:56;;;;;;;0.67;0.67;;;;;;;22.58;100.00;98691.44;5070934;28;20657;-66
2023/06/17 09:00:23;;;;;;;1.07;1.07;;;;;;;22.59;100.00;98693.91;5071541;28;20204;-66
2023/06/17 09:02:51;;;;;;;1.00;1.00;;;;;;;22.56;100.00;98680.28;5071081;28;20188;-66
2023/06/17 09:05:18;;;;;;;0.50;0.50;;;;;;;22.68;100.00;98695.72;5071497;28;20206;-66
2023/06/17 09:07:46;;;;;;;0.70;0.70;;;;;;;22.75;100.00;98701.19;5071946;28;20199;-66
2023/06/17 09:10:16;;;;;;;0.50;0.50;;;;;;;22.80;100.00;98688.56;5071929;28;20680;-66
2023/06/17 09:12:42;;;;;;;0.93;0.93;;;;;;;22.85;100.00;98697.63;5071886;28;20212;-66
2023/06/17 09:15:17;;;;;;;0.40;0.40;;;;;;;22.89;100.00;98699.00;5071670;28;20211;-66
2023/06/17 09:17:45;;;;;;;1.10;1.10;;;;;;;22.93;100.00;98704.75;5071697;28;20199;-66
2023/06/17 09:20:14;;;;;;;0.83;0.83;;;;;;;22.99;100.00;98699.78;5071549;28;20203;-67
2023/06/17 09:22:42;;;;;;;0.50;0.50;;;;;;;23.00;100.00;98701.44;5071407;28;20192;-67
2023/06/17 09:25:15;;;;;;;0.50;0.50;;;;;;;23.05;100.00;98708.03;5071442;28;20192;-67
2023/06/17 09:27:49;;;;;;;1.23;1.20;;;;;;;23.07;100.00;98700.88;5069353;28;20746;-67
2023/06/17 09:30:16;;;;;;;0.77;0.77;;;;;;;23.08;100.00;98712.97;5071095;28;20207;-66
2023/06/17 09:32:44;;;;;;;0.90;0.90;;;;;;;23.06;100.00;98709.69;5071167;28;20269;-67
2023/06/17 09:35:15;;;;;;;0.70;0.70;;;;;;;23.06;100.00;98709.69;5071605;28;20793;-67
2023/06/17 09:37:44;;;;;;;0.60;0.60;;;;;;;23.11;100.00;98712.69;5071147;28;20188;-67
2023/06/17 09:40:13;;;;;;;0.50;0.50;;;;;;;23.06;100.00;98714.91;5071672;28;20200;-67
2023/06/17 09:42:40;;;;;;;0.73;0.73;;;;;;;22.98;100.00;98713.81;5070825;28;20196;-66
2023/06/17 09:45:11;;;;;;;0.40;0.40;;;;;;;23.00;100.00;98721.53;5071307;28;20668;-67
2023/06/17 09:47:38;;;;;;;0.83;0.83;;;;;;;23.04;100.00;98716.84;5071019;28;20215;-66
2023/06/17 09:50:08;;;;;;;1.60;0.93;;;;;;;23.08;100.00;98721.66;5071306;28;20735;-67
2023/06/17 09:52:37;;;;;;;0.40;0.40;;;;;;;23.19;100.00;98725.91;5070938;28;20215;-67
2023/06/17 09:55:05;;;;;;;0.60;0.60;;;;;;;23.24;100.00;98721.03;5071291;28;20680;-67
2023/06/17 09:57:34;;;;;;;0.30;0.30;;;;;;;23.32;100.00;98721.19;5070893;28;20204;-67
2023/06/17 10:00:09;;;;;;;0.50;0.50;;;;;;;23.39;100.00;98715.22;5071025;28;20630;-67
2023/06/17 10:02:36;;;;;;;0.80;0.80;;;;;;;23.34;100.00;98720.06;5070883;28;20276;-67
2023/06/17 10:05:04;;;;;;;0.90;0.90;;;;;;;23.39;100.00;98711.78;5070699;28;20315;-67
2023/06/17 10:07:32;;;;;;;0.40;0.40;;;;;;;23.45;100.00;98716.47;5071056;28;20196;-67
2023/06/17 10:09:59;;;;;;;0.50;0.50;;;;;;;23.55;100.00;98717.28;5070823;28;20192;-66
2023/06/17 10:12:28;;;;;;;0.90;0.90;;;;;;;23.60;100.00;98722.06;5070860;28;20227;-67
2023/06/17 10:14:57;;;;;;;0.70;0.70;;;;;;;23.59;100.00;98718.59;5070573;28;20698;-67
2023/06/17 10:17:25;;;;;;;0.70;0.70;;;;;;;23.60;100.00;98719.44;5070607;28;20249;-67
2023/06/17 10:19:53;;;;;;;0.50;0.50;;;;;;;23.60;100.00;98715.03;5070398;28;20207;-67
2023/06/17 10:22:22;;;;;;;0.47;0.47;;;;;;;23.53;100.00;98699.09;5070944;28;20192;-67
2023/06/17 10:24:49;;;;;;;0.80;0.80;;;;;;;23.75;100.00;98707.53;5068965;28;20462;-68
2023/06/17 10:27:16;;;;;;;0.50;0.50;;;;;;;23.90;100.00;98717.38;5069878;28;20234;-67
2023/06/17 10:29:43;;;;;;;0.70;0.70;;;;;;;23.93;100.00;98711.84;5069858;28;20580;-67
2023/06/17 10:32:19;;;;;;;0.57;0.50;;;;;;;24.01;100.00;98719.75;5068864;28;20222;-67
2023/06/17 10:35:11;;;;;;;2.20;0.97;;;;;;;24.07;100.00;98722.78;5069977;28;20290;-67
2023/06/17 10:37:40;;;;;;;0.37;0.37;;;;;;;24.12;100.00;98726.63;5069784;28;20200;-67
2023/06/17 10:40:24;;;;;;;0.57;0.57;;;;;;;24.13;100.00;98727.44;5067888;28;20208;-68
2023/06/17 10:42:59;;;;;;;0.33;0.33;;;;;;;24.17;100.00;98724.38;5068641;28;20967;-67
2023/06/17 10:45:28;;;;;;;0.30;0.30;;;;;;;24.29;100.00;98719.75;5064255;28;20644;-67
2023/06/17 10:48:20;;;;;;;0.30;0.30;;;;;;;24.27;100.00;98724.31;5066472;28;20219;-68
2023/06/17 10:50:52;;;;;;;0.40;0.40;;;;;;;24.28;100.00;98725.97;5066529;28;20668;-67
2023/06/17 10:53:25;;;;;;;0.70;0.70;;;;;;;24.33;100.00;98727.16;5068169;28;20579;-67
2023/06/17 10:55:52;;;;;;;0.23;0.23;;;;;;;24.36;100.00;98720.81;5068303;28;20846;-67
2023/06/17 10:58:19;;;;;;;0.43;0.43;;;;;;;24.33;100.00;98718.50;5064487;28;20583;-68
2023/06/17 11:00:46;;;;;;;0.60;0.60;;;;;;;24.32;100.00;98716.84;5066560;28;20204;-67
2023/06/17 11:03:15;;;;;;;0.40;0.40;;;;;;;24.28;100.00;98708.44;5066446;28;20637;-67
2023/06/17 11:05:46;;;;;;;0.57;0.57;;;;;;;24.23;100.00;98696.78;5066962;28;20204;-67
2023/06/17 11:08:16;;;;;;;0.37;0.37;;;;;;;24.13;100.00;98702.09;5067113;28;20234;-67
2023/06/17 11:10:42;;;;;;;0.40;0.40;;;;;;;23.91;100.00;98678.91;5066693;28;20740;-67
2023/06/17 11:13:09;;;;;;;0.33;0.33;;;;;;;24.05;100.00;98700.16;5066037;28;20281;-67
2023/06/17 11:15:36;;;;;;;0.70;0.70;;;;;;;23.97;100.00;98681.75;5067289;28;20200;-67
2023/06/17 11:18:04;;;;;;;0.50;0.50;;;;;;;23.97;100.00;98692.22;5065918;28;20200;-67
2023/06/17 11:20:34;;;;;;;0.50;0.50;;;;;;;24.00;100.00;98691.94;5066277;28;20200;-67
2023/06/17 11:23:03;;;;;;;0.23;0.23;;;;;;;24.07;100.00;98686.13;5067607;28;20668;-67
2023/06/17 11:25:30;;;;;;;0.50;0.50;;;;;;;24.11;100.00;98687.44;5066438;28;20215;-67
2023/06/17 11:27:57;;;;;;;0.40;0.40;;;;;;;24.19;100.00;98680.53;5069326;28;20247;-67